Terminal Aerodrome Forecast
Issued by NWS

Home | Current Version | Previous Version | Text Only | Print | Product List | Glossary On
Versions: 1 2 3 4 5 6 7 8 9 10 11 12 13
141
FTUS45 KFGZ 271740
TAFSEZ
TAF
KSEZ 271740Z 2718/2818 18012G22KT P6SM BKN060 BKN120
     FM272300 21015G25KT P6SM -SHRA BKN040
     FM280300 23006KT P6SM VCSH OVC040
     FM280700 05010KT P6SM BKN050=

USA.gov is the U.S. government's official web portal to all federal, state and local government web resources and services.